Mobile, AL (36618)

6:49 AM CDT on June 02, 2015 (GMT -0500)
The Legends At Magnolia Grove | | Change Station
CLOSE
Current Station
Personal Weather Station
Location: Mobile, AL
Elevation: 171 ft
Nearby Weather Stations

Elev 171 ft 30.74 °N, 88.20 °W | Updated 4 seconds ago

Fog
Fog
70.4 °F
Feels Like 77 °F
N
0.0
Wind Variable Wind from North
Gusts 3.0 mph

Today
High -- | Low -- °F
--% Chance of Precip.
Yesterday
High -- | Low -- °F
Precip. -- in
5:50 AM 7:51 PM
Full, 100% visible
Pressure 29.99 in
Visibility 3.0 miles
Clouds Few 200 ft
Scattered Clouds 2000 ft
Mostly Cloudy 7500 ft
Heat Index 77 °F
Dew Point 54 °F
Humidity 55%
Rainfall 0.00 in
Snow Depth Not available.
UV 0 out of 12
Pollen 3.80 out of 12
Air Quality Not available.
Flu Activity Sporadic
SPECI KMOB 021131Z 01005KT 3SM BR FEW002 SCT020 BKN075 21/21 A2999 RMK AO2 VIS N 1 T02110211

More Conditions Fewer Conditions

Pressure 29.99 in
Visibility 3.0 miles
Clouds Few 200 ft
Scattered Clouds 2000 ft
Mostly Cloudy 7500 ft
Heat Index 77 °F
Dew Point 54 °F
Humidity 55%
Rainfall 0.00 in
Snow Depth Not available.
UV 0 out of 12
Pollen 3.80 out of 12
Air Quality Not available.
Flu Activity Sporadic
SPECI KMOB 021131Z 01005KT 3SM BR FEW002 SCT020 BKN075 21/21 A2999 RMK AO2 VIS N 1 T02110211

More Conditions Fewer Conditions

10-Day Weather Forecast

Almanac

Astronomy

Jun. 02, 2015 Rise Set
Actual Time
Civil Twilight
Nautical Twilight
Astronomical Twilight
Moon
Length of Visible Light
Length of Day
Tomorrow will be .
, % of the Moon is Illuminated

Today's Extremes

State Highs State Lows

Community

WunderPhotos

Upload Photos

1,825,896 photos uploaded!

WunderBlogs® & News

Nearby

Air Quality

  Air Quality AQ Index Pollutant
Not available.

Snow Depth

Station Depth Elevation

Earthquake Activity

City Distance Mag. Time & Date
Minimum magnitude displayed is 2.5.

Coastal Water Temperatures

Place Temperature

Stations

Nearby Weather Stations

Station Location Temp. Windchill Dew Point Humidity Wind Precip. Elev Updated Type